Time;durP1;ratioP1;P1;durP2;ratioP2;P2;SDS_P1;SDS_P2;PMS_P1;PMS_P2;Temp;Humidity;BMP_temperature;BMP_pressure;BME280_temperature;BME280_humidity;BME280_pressure;Samples;Min_cycle;Max_cycle;Signal;HPM_P1;HPM_P2
2022/06/13 00:01:13;;;;;;;9.95;2.17;;;;;;;17.03;44.33;101032.53;5033524;28;20088;-65
2022/06/13 00:03:40;;;;;;;7.47;1.90;;;;;;;16.94;44.65;101030.13;5033513;28;20445;-65
2022/06/13 00:06:07;;;;;;;7.32;1.70;;;;;;;16.99;44.42;101030.38;5033392;28;20486;-65
2022/06/13 00:08:34;;;;;;;8.43;2.40;;;;;;;16.94;44.81;101039.09;5035662;28;20140;-65
2022/06/13 00:11:01;;;;;;;9.85;2.83;;;;;;;16.94;44.90;101027.44;5037630;28;20514;-66
2022/06/13 00:13:28;;;;;;;6.75;2.10;;;;;;;16.98;44.67;101034.97;5036700;28;20113;-65
2022/06/13 00:15:54;;;;;;;6.88;2.15;;;;;;;16.94;44.81;101024.72;5037563;28;20045;-66
2022/06/13 00:18:21;;;;;;;8.45;2.45;;;;;;;16.91;44.81;101031.34;5036922;28;20067;-65
2022/06/13 00:20:47;;;;;;;11.18;2.67;;;;;;;16.74;45.44;101032.66;5037263;28;20206;-66
2022/06/13 00:23:14;;;;;;;11.63;2.65;;;;;;;16.75;45.45;101027.06;5037358;28;20503;-66
2022/06/13 00:25:40;;;;;;;7.85;2.28;;;;;;;16.73;45.46;101033.69;5037026;28;20140;-66
2022/06/13 00:28:07;;;;;;;11.25;2.42;;;;;;;16.65;45.56;101026.53;5037003;28;20092;-66
2022/06/13 00:30:33;;;;;;;11.10;2.60;;;;;;;16.66;45.78;101029.03;5036805;28;20092;-66
2022/06/13 00:33:00;;;;;;;8.75;2.65;;;;;;;16.73;45.43;101028.28;5036870;28;20156;-66
2022/06/13 00:35:26;;;;;;;5.38;1.80;;;;;;;16.67;45.46;101019.88;5036726;28;20132;-67
2022/06/13 00:37:53;;;;;;;9.27;2.78;;;;;;;16.61;45.52;101025.25;5037013;28;20081;-66
2022/06/13 00:40:20;;;;;;;7.22;2.15;;;;;;;16.61;45.70;101027.97;5036599;28;20103;-66
2022/06/13 00:42:46;;;;;;;10.18;2.55;;;;;;;16.77;45.36;101024.97;5036782;28;20430;-64
2022/06/13 00:45:20;;;;;;;9.98;2.28;;;;;;;16.84;45.03;101020.44;5036525;28;20087;-65
2022/06/13 00:47:51;;;;;;;8.38;2.03;;;;;;;16.74;45.52;101019.94;5036859;28;20080;-65
2022/06/13 00:50:23;;;;;;;9.02;2.47;;;;;;;16.94;44.87;101020.13;5019137;28;20079;-65
2022/06/13 00:53:00;;;;;;;9.82;2.58;;;;;;;16.81;44.96;101028.97;5036705;28;20517;-65
2022/06/13 00:55:32;;;;;;;6.72;2.10;;;;;;;16.88;44.93;101029.88;5018730;28;20056;-66
2022/06/13 00:58:01;;;;;;;10.13;2.50;;;;;;;16.80;44.93;101031.88;5036691;28;20148;-65
2022/06/13 01:00:30;;;;;;;5.72;1.98;;;;;;;16.73;45.24;101026.41;5036513;28;20149;-66
2022/06/13 01:02:59;;;;;;;7.57;2.10;;;;;;;16.79;44.98;101022.09;5036753;28;20054;-66
2022/06/13 01:09:09;;;;;;;11.55;2.08;;;;;;;16.53;45.35;101028.88;5036472;28;20080;-66
2022/06/13 01:11:41;;;;;;;9.20;2.45;;;;;;;16.46;45.80;101030.66;5036218;28;20124;-66
2022/06/13 01:14:24;;;;;;;6.93;1.83;;;;;;;16.37;45.99;101026.41;5035953;28;20046;-67
2022/06/13 01:17:23;;;;;;;9.70;2.15;;;;;;;16.56;45.78;101028.50;5036095;28;20076;-66
2022/06/13 01:20:21;;;;;;;13.18;2.35;;;;;;;16.64;45.42;101030.25;5035652;28;20107;-66
2022/06/13 01:23:07;;;;;;;7.50;2.13;;;;;;;16.58;45.62;101023.75;5035898;28;20080;-65
2022/06/13 01:25:58;;;;;;;6.57;2.15;;;;;;;16.61;45.61;101022.53;5035716;28;20081;-66
2022/06/13 01:29:01;;;;;;;9.45;1.92;;;;;;;16.66;45.64;101025.50;5036084;28;20132;-65
2022/06/13 01:31:47;;;;;;;9.15;2.00;;;;;;;16.66;45.62;101028.19;5035760;28;20136;-67
2022/06/13 01:34:37;;;;;;;7.22;1.90;;;;;;;16.51;46.01;101022.84;5035761;28;20501;-66
2022/06/13 01:37:19;;;;;;;7.88;2.35;;;;;;;16.46;46.25;101025.25;5035808;28;20077;-66
2022/06/13 01:40:14;;;;;;;11.93;2.28;;;;;;;16.37;46.56;101018.28;5036023;28;20132;-66
2022/06/13 01:42:59;;;;;;;9.15;2.22;;;;;;;16.37;46.76;101019.13;5035481;28;20137;-66
2022/06/13 01:45:38;;;;;;;7.82;2.20;;;;;;;16.33;46.89;101025.09;5035964;28;20455;-65
2022/06/13 01:48:07;;;;;;;8.70;1.90;;;;;;;16.40;46.84;101023.28;5035530;28;20092;-65
2022/06/13 01:50:52;;;;;;;9.57;2.30;;;;;;;16.48;46.45;101025.06;5036048;28;20140;-66
2022/06/13 01:53:51;;;;;;;9.18;2.70;;;;;;;16.42;46.71;101022.09;5018129;28;20057;-66
2022/06/13 01:56:23;;;;;;;8.90;2.40;;;;;;;16.52;46.62;101023.69;5035110;28;20136;-65
2022/06/13 01:58:59;;;;;;;7.50;2.15;;;;;;;16.40;46.92;101032.28;5034995;28;20132;-65
2022/06/13 02:01:28;;;;;;;9.25;2.40;;;;;;;16.59;46.51;101033.53;5035329;28;20136;-66
2022/06/13 02:04:14;;;;;;;7.07;2.60;;;;;;;16.61;46.48;101034.22;5036006;28;20473;-66
2022/06/13 02:06:47;;;;;;;10.00;2.95;;;;;;;16.57;46.57;101043.72;5034998;28;20137;-66
2022/06/13 02:09:21;;;;;;;6.68;2.33;;;;;;;16.46;46.96;101041.50;5035047;28;20140;-65
2022/06/13 02:11:53;;;;;;;10.05;2.05;;;;;;;16.37;47.35;101034.53;5034638;28;20052;-65
2022/06/13 02:14:29;;;;;;;8.23;2.33;;;;;;;16.38;47.49;101038.91;5034698;28;20115;-66
2022/06/13 02:17:01;;;;;;;6.82;2.22;;;;;;;16.49;47.29;101041.13;5035015;28;20053;-65
2022/06/13 02:20:02;;;;;;;7.90;2.22;;;;;;;16.59;47.13;101047.09;5035270;28;20045;-65
2022/06/13 02:22:41;;;;;;;7.20;1.95;;;;;;;16.41;47.34;101052.06;5034844;28;20460;-65
2022/06/13 02:25:22;;;;;;;7.55;1.90;;;;;;;16.41;47.55;101060.19;5034776;28;20080;-66
2022/06/13 02:27:55;;;;;;;8.40;2.20;;;;;;;16.47;47.36;101056.72;5034708;28;20140;-65
2022/06/13 02:30:28;;;;;;;6.25;2.15;;;;;;;16.44;47.31;101059.81;5025610;28;20053;-66
2022/06/13 02:33:07;;;;;;;9.20;2.60;;;;;;;16.56;47.24;101061.00;5034533;28;20092;-66
2022/06/13 02:35:39;;;;;;;10.95;2.28;;;;;;;16.45;47.41;101056.06;5034526;28;20045;-65
2022/06/13 02:38:19;;;;;;;6.43;1.90;;;;;;;16.44;47.46;101057.13;5034482;28;20049;-65
2022/06/13 02:40:52;;;;;;;7.13;1.97;;;;;;;16.46;47.54;101051.50;5034500;28;20144;-65
2022/06/13 02:43:28;;;;;;;8.88;2.30;;;;;;;16.38;47.90;101045.16;5034090;28;20263;-65
2022/06/13 02:46:00;;;;;;;6.90;1.90;;;;;;;16.58;47.58;101050.00;5034448;28;20041;-65
2022/06/13 02:48:31;;;;;;;7.28;2.15;;;;;;;16.64;47.20;101052.78;5034389;28;20095;-66
2022/06/13 02:50:57;;;;;;;7.55;2.70;;;;;;;16.23;48.47;101038.09;5034307;28;20132;-65
2022/06/13 02:53:35;;;;;;;6.45;2.35;;;;;;;16.22;48.45;101033.72;5034186;28;20512;-65
2022/06/13 02:56:07;;;;;;;10.98;2.10;;;;;;;16.44;47.84;101035.44;5034198;28;20081;-65
2022/06/13 02:58:45;;;;;;;10.48;2.67;;;;;;;16.41;47.72;101038.53;5034689;28;20049;-65
2022/06/13 03:01:38;;;;;;;6.95;2.50;;;;;;;16.43;47.74;101050.00;5034747;28;20064;-65
2022/06/13 03:04:14;;;;;;;9.45;2.53;;;;;;;16.36;47.52;101043.66;5034505;28;20576;-65
2022/06/13 03:06:57;;;;;;;8.85;2.55;;;;;;;16.15;47.72;101047.16;5034039;28;20053;-65
2022/06/13 03:09:31;;;;;;;11.40;2.65;;;;;;;16.06;47.95;101048.31;5033912;28;20404;-64
2022/06/13 03:12:04;;;;;;;6.88;2.38;;;;;;;16.31;47.42;101048.81;5034702;28;20071;-66
2022/06/13 03:14:36;;;;;;;11.27;2.63;;;;;;;16.14;47.37;101059.88;5033906;28;20465;-66
2022/06/13 03:17:14;;;;;;;12.20;3.10;;;;;;;16.24;47.07;101058.75;5033562;28;20140;-66
2022/06/13 03:19:49;;;;;;;8.95;2.60;;;;;;;16.32;46.90;101056.75;5034635;28;20500;-66
2022/06/13 03:22:24;;;;;;;9.70;2.38;;;;;;;16.13;46.70;101054.66;5033820;28;20053;-66
2022/06/13 03:25:00;;;;;;;6.93;2.38;;;;;;;16.07;46.34;101063.53;5015913;28;20177;-65
2022/06/13 03:27:33;;;;;;;10.52;2.63;;;;;;;15.89;46.71;101072.03;5032336;28;20056;-66
2022/06/13 03:30:06;;;;;;;11.98;2.50;;;;;;;15.84;46.57;101060.91;5033515;28;20096;-65
2022/06/13 03:35:39;;;;;;;8.82;2.83;;;;;;;15.85;46.54;101060.75;5033619;28;20521;-66
2022/06/13 03:38:12;;;;;;;10.57;2.25;;;;;;;16.24;46.16;101056.88;5032429;28;20125;-66
2022/06/13 03:40:41;;;;;;;10.77;2.35;;;;;;;16.01;46.64;101051.56;5033678;28;20140;-65
2022/06/13 03:43:23;;;;;;;8.57;1.98;;;;;;;16.18;46.47;101061.16;5037098;28;20474;-66
2022/06/13 03:46:03;;;;;;;13.18;2.42;;;;;;;15.98;46.83;101059.22;5037741;28;20049;-65
2022/06/13 03:48:38;;;;;;;10.80;2.35;;;;;;;16.14;46.71;101069.84;5037706;28;20076;-65
2022/06/13 03:51:19;;;;;;;8.02;2.50;;;;;;;16.18;46.45;101071.16;5037602;28;20478;-65
2022/06/13 03:54:08;;;;;;;12.48;2.85;;;;;;;16.13;46.51;101079.84;5037345;28;20092;-66
2022/06/13 03:57:00;;;;;;;12.30;2.92;;;;;;;16.04;46.93;101083.66;5037460;28;20440;-66
2022/06/13 03:59:36;;;;;;;8.60;2.63;;;;;;;16.00;47.20;101084.25;5038295;28;20073;-66
2022/06/13 04:02:11;;;;;;;10.55;2.50;;;;;;;16.00;47.09;101093.19;5037423;28;20133;-66
2022/06/13 04:04:44;;;;;;;13.70;2.75;;;;;;;16.00;47.16;101090.50;5036458;28;20065;-66
2022/06/13 04:07:10;;;;;;;9.60;3.35;;;;;;;15.98;47.14;101083.56;5038043;28;20072;-66
2022/06/13 04:09:53;;;;;;;8.60;2.38;;;;;;;16.01;47.48;101085.91;5037573;28;20548;-66
2022/06/13 04:12:47;;;;;;;10.35;2.85;;;;;;;15.90;47.34;101081.81;5037174;28;20143;-66
2022/06/13 04:15:41;;;;;;;13.38;3.15;;;;;;;15.78;47.64;101088.69;5037527;28;20059;-66
2022/06/13 04:18:56;;;;;;;8.90;2.33;;;;;;;15.76;47.42;101082.66;5037055;28;20053;-66
2022/06/13 04:21:22;;;;;;;9.73;2.47;;;;;;;15.69;47.52;101077.97;5019833;28;20054;-66
2022/06/13 04:23:52;;;;;;;9.48;2.47;;;;;;;15.67;47.70;101080.03;5037019;28;20084;-66
2022/06/13 04:26:49;;;;;;;9.63;2.53;;;;;;;15.59;47.32;101071.97;5036737;28;20099;-66
2022/06/13 04:29:35;;;;;;;13.27;2.60;;;;;;;15.54;47.43;101074.41;5036602;28;20057;-65
2022/06/13 04:32:08;;;;;;;13.40;2.63;;;;;;;15.63;47.28;101080.56;5036710;28;20096;-65
2022/06/13 04:34:43;;;;;;;10.90;2.90;;;;;;;15.64;47.05;101075.00;5036444;28;20045;-66
2022/06/13 04:37:11;;;;;;;10.07;2.70;;;;;;;15.51;46.98;101084.75;5036991;28;20127;-66
2022/06/13 04:39:38;;;;;;;10.55;2.88;;;;;;;15.45;47.10;101089.00;5036915;28;20140;-65
2022/06/13 04:42:07;;;;;;;10.70;2.85;;;;;;;15.40;46.72;101088.72;5037346;28;20049;-66
2022/06/13 04:44:36;;;;;;;10.48;2.15;;;;;;;15.36;46.83;101087.38;5036294;28;20533;-65
2022/06/13 04:47:04;;;;;;;11.52;2.75;;;;;;;15.35;46.93;101093.84;5037056;28;20081;-66
2022/06/13 04:49:35;;;;;;;7.40;2.30;;;;;;;15.24;46.86;101097.81;5036985;28;20080;-67
2022/06/13 04:52:25;;;;;;;11.05;2.60;;;;;;;15.43;46.80;101099.16;5036562;28;20132;-66
2022/06/13 04:55:12;;;;;;;21.02;2.40;;;;;;;15.41;46.71;101090.41;5035570;28;20085;-65
2022/06/13 04:57:39;;;;;;;9.15;2.10;;;;;;;15.40;46.71;101092.28;5036444;28;20420;-65
2022/06/13 05:00:07;;;;;;;12.80;2.90;;;;;;;15.42;46.76;101090.19;5036331;28;20490;-66
2022/06/13 05:02:38;;;;;;;13.30;2.90;;;;;;;15.33;48.51;101104.84;5036214;28;20085;-65
2022/06/13 05:05:22;;;;;;;9.70;2.67;;;;;;;15.53;47.81;101094.31;5036131;28;20401;-66
2022/06/13 05:07:48;;;;;;;11.38;2.72;;;;;;;15.56;47.19;101095.84;5035841;28;20085;-66
2022/06/13 05:10:18;;;;;;;10.20;2.55;;;;;;;15.61;46.72;101105.09;5036016;28;20473;-67
2022/06/13 05:12:45;;;;;;;6.63;2.08;;;;;;;15.65;46.54;101095.59;5036382;28;20081;-65
2022/06/13 05:15:21;;;;;;;8.63;2.60;;;;;;;15.71;46.43;101097.56;5036195;28;20136;-66
2022/06/13 05:17:58;;;;;;;15.00;3.00;;;;;;;15.65;45.95;101098.31;5035833;28;20096;-66
2022/06/13 05:20:55;;;;;;;12.75;2.97;;;;;;;15.75;46.11;101108.03;5036224;28;20482;-65
2022/06/13 05:23:29;;;;;;;8.43;2.65;;;;;;;15.78;45.94;101111.19;5035834;28;20469;-66
2022/06/13 05:25:58;;;;;;;10.25;3.10;;;;;;;15.78;45.62;101113.91;5035725;28;20045;-66
2022/06/13 05:28:29;;;;;;;10.00;2.72;;;;;;;15.79;45.67;101117.44;5036162;28;20069;-66
2022/06/13 05:31:05;;;;;;;7.45;2.38;;;;;;;15.74;45.23;101117.16;5035679;28;20058;-67
2022/06/13 05:33:40;;;;;;;10.93;2.30;;;;;;;15.54;45.30;101123.06;5036988;28;20049;-65
2022/06/13 05:36:10;;;;;;;7.90;2.30;;;;;;;15.55;45.18;101123.91;5036237;28;20493;-66
2022/06/13 05:38:43;;;;;;;11.45;2.40;;;;;;;15.59;44.64;101114.41;5035534;28;20148;-66
2022/06/13 05:41:10;;;;;;;10.18;2.70;;;;;;;15.56;44.74;101118.31;5035372;28;20111;-65
2022/06/13 05:43:37;;;;;;;6.97;2.25;;;;;;;15.56;44.60;101123.72;5035343;28;20537;-66
2022/06/13 05:46:07;;;;;;;8.95;2.30;;;;;;;15.52;44.70;101119.69;5035691;28;20112;-66
2022/06/13 05:48:34;;;;;;;8.05;2.20;;;;;;;15.52;44.78;101125.09;5035544;28;20055;-66
2022/06/13 05:51:01;;;;;;;8.68;2.63;;;;;;;15.50;44.77;101132.56;5035253;28;20544;-66
2022/06/13 05:53:28;;;;;;;10.32;2.40;;;;;;;15.58;44.87;101129.78;5035346;28;20093;-66
2022/06/13 05:55:58;;;;;;;7.82;1.92;;;;;;;15.54;44.74;101133.88;5035187;28;20068;-66
2022/06/13 05:58:25;;;;;;;8.45;2.38;;;;;;;15.74;44.34;101136.91;5035574;28;20136;-65
2022/06/13 06:01:01;;;;;;;14.75;2.47;;;;;;;15.61;44.09;101142.94;5035563;28;20417;-66
2022/06/13 06:03:28;;;;;;;13.90;2.58;;;;;;;15.74;44.09;101136.09;5035129;28;20053;-66
2022/06/13 06:05:55;;;;;;;16.42;3.03;;;;;;;15.85;43.89;101141.91;5033906;28;20076;-66
2022/06/13 06:08:25;;;;;;;12.68;2.58;;;;;;;15.83;43.29;101141.22;5035385;28;20112;-66
2022/06/13 06:10:54;;;;;;;12.77;2.75;;;;;;;15.70;42.72;101149.13;5034964;28;20096;-66
2022/06/13 06:13:21;;;;;;;11.32;2.80;;;;;;;15.48;42.63;101156.25;5035092;28;20145;-66
2022/06/13 06:15:48;;;;;;;13.15;2.88;;;;;;;15.47;42.40;101152.69;5036193;28;20530;-66
2022/06/13 06:18:16;;;;;;;7.18;2.20;;;;;;;15.39;42.54;101151.91;5034884;28;20053;-66
2022/06/13 06:20:43;;;;;;;9.18;2.47;;;;;;;15.32;42.51;101149.09;5034874;28;20499;-66
2022/06/13 06:23:10;;;;;;;8.20;2.38;;;;;;;15.28;41.98;101149.66;5017141;28;20096;-66
2022/06/13 06:25:36;;;;;;;11.48;2.53;;;;;;;15.36;41.71;101146.88;5034539;28;20136;-66
2022/06/13 06:28:03;;;;;;;9.38;2.67;;;;;;;15.33;41.84;101152.63;5034045;28;20049;-65
2022/06/13 06:30:31;;;;;;;10.18;2.67;;;;;;;15.34;41.96;101146.22;5034557;28;20136;-65
2022/06/13 06:32:58;;;;;;;9.68;3.00;;;;;;;15.36;41.90;101149.56;5033943;28;20140;-65
2022/06/13 06:35:28;;;;;;;12.80;3.10;;;;;;;15.43;41.89;101147.81;5034328;28;20140;-66
2022/06/13 06:37:55;;;;;;;12.20;2.97;;;;;;;15.39;41.65;101143.81;5034526;28;20136;-65
2022/06/13 06:40:24;;;;;;;11.05;3.20;;;;;;;15.43;41.64;101147.81;5034790;28;20068;-66
2022/06/13 06:42:51;;;;;;;8.45;2.67;;;;;;;15.31;41.49;101147.41;5034089;28;20057;-66
2022/06/13 06:45:25;;;;;;;11.82;2.90;;;;;;;15.30;41.30;101158.44;5025777;28;20045;-66
2022/06/13 06:47:53;;;;;;;14.43;3.88;;;;;;;15.25;41.47;101158.94;5034172;28;20405;-66
2022/06/13 06:50:23;;;;;;;8.68;2.80;;;;;;;15.16;41.42;101157.34;5034165;28;20160;-66
2022/06/13 06:52:50;;;;;;;11.35;2.50;;;;;;;15.18;40.35;101156.13;5034222;28;20136;-68
2022/06/13 07:01:19;;;;;;;9.45;2.47;;;;;;;15.51;40.20;101118.03;4993211;28;20506;-68
2022/06/13 07:03:46;;;;;;;8.13;2.28;;;;;;;15.57;40.39;101122.72;4993756;28;20082;-68
2022/06/13 07:06:14;;;;;;;6.85;2.60;;;;;;;15.64;39.93;101128.22;4993025;28;20113;-69
2022/06/13 07:08:41;;;;;;;10.05;2.10;;;;;;;15.60;39.97;101137.69;4993040;28;20419;-68
2022/06/13 07:14:01;;;;;;;10.80;2.40;;;;;;;15.70;39.42;101130.19;4993046;28;20137;-67
2022/06/13 07:16:28;;;;;;;12.70;2.35;;;;;;;15.86;39.28;101126.50;4992173;28;20050;-68
2022/06/13 07:18:55;;;;;;;9.07;1.88;;;;;;;15.88;38.67;101129.84;4992999;28;20144;-68
2022/06/13 07:21:21;;;;;;;6.85;1.73;;;;;;;15.86;37.95;101145.44;4993104;28;20054;-67
2022/06/13 07:23:48;;;;;;;8.18;1.60;;;;;;;15.98;38.11;101143.94;4993326;28;20089;-67
2022/06/13 07:26:14;;;;;;;6.50;1.85;;;;;;;15.87;37.60;101139.84;4993475;28;20549;-68
2022/06/13 07:28:41;;;;;;;6.97;2.15;;;;;;;15.89;37.60;101147.78;4993663;28;20136;-67
2022/06/13 07:31:17;;;;;;;6.22;1.77;;;;;;;15.81;38.00;101150.56;4998757;28;20081;-68
2022/06/13 07:33:45;;;;;;;6.90;1.98;;;;;;;15.66;38.00;101155.94;5034188;28;20049;-68
2022/06/13 07:36:12;;;;;;;6.93;1.73;;;;;;;15.49;38.27;101147.09;5034301;28;20049;-68
2022/06/13 07:38:38;;;;;;;5.47;1.73;;;;;;;15.44;38.27;101146.81;5034380;28;20516;-68
2022/06/13 07:41:06;;;;;;;6.55;1.52;;;;;;;15.49;38.27;101145.22;5034619;28;20081;-67
2022/06/13 07:43:36;;;;;;;8.32;1.83;;;;;;;15.44;38.30;101144.94;5033558;28;20053;-67
2022/06/13 07:46:06;;;;;;;10.90;1.73;;;;;;;15.47;38.29;101146.47;5033613;28;20107;-66
2022/06/13 07:48:33;;;;;;;7.53;1.63;;;;;;;15.51;38.52;101150.47;5033350;28;20050;-67
2022/06/13 07:51:00;;;;;;;7.18;1.85;;;;;;;15.47;39.03;101149.16;5033874;28;20454;-67
2022/06/13 07:53:27;;;;;;;8.68;2.10;;;;;;;15.34;38.55;101148.94;5034316;28;20088;-67
2022/06/13 07:56:18;;;;;;;6.40;2.42;;;;;;;15.35;38.68;101153.31;5034394;28;20052;-68
2022/06/13 07:58:46;;;;;;;8.25;2.05;;;;;;;15.44;38.71;101147.66;5034423;28;20454;-67
2022/06/13 08:01:13;;;;;;;7.45;1.85;;;;;;;15.37;38.65;101157.50;5034243;28;20136;-67
2022/06/13 08:03:41;;;;;;;9.90;2.17;;;;;;;15.49;38.55;101147.09;5034402;28;20539;-67
2022/06/13 08:06:08;;;;;;;7.90;1.80;;;;;;;15.59;38.70;101144.16;5034287;28;20132;-68
2022/06/13 08:08:35;;;;;;;7.88;1.70;;;;;;;15.70;38.48;101141.03;5034410;28;20468;-66
2022/06/13 08:11:04;;;;;;;10.00;2.13;;;;;;;15.71;38.47;101148.97;5035044;28;20065;-67
2022/06/13 08:13:33;;;;;;;8.45;1.77;;;;;;;16.02;37.89;101153.41;5034319;28;20085;-68
2022/06/13 08:16:00;;;;;;;5.05;1.67;;;;;;;16.21;37.83;101152.00;5033977;28;20136;-66
2022/06/13 08:18:26;;;;;;;10.45;2.13;;;;;;;16.52;37.24;101154.53;5033786;28;20073;-67
2022/06/13 08:20:53;;;;;;;8.88;2.08;;;;;;;16.57;37.21;101157.47;5034627;28;20069;-68
2022/06/13 08:23:21;;;;;;;9.70;2.03;;;;;;;16.74;36.68;101154.56;5034197;28;20077;-68
2022/06/13 08:25:49;;;;;;;8.10;1.58;;;;;;;16.69;36.53;101165.97;5033889;28;20523;-67
2022/06/13 08:28:16;;;;;;;12.20;2.17;;;;;;;16.85;36.29;101159.47;5034218;28;20061;-68
2022/06/13 08:30:50;;;;;;;11.32;2.40;;;;;;;16.92;35.71;101157.72;5037447;28;20060;-68
2022/06/13 08:33:18;;;;;;;7.47;1.90;;;;;;;17.01;35.49;101147.56;5038013;28;20454;-68
2022/06/13 08:35:44;;;;;;;12.65;1.92;;;;;;;16.99;35.36;101149.63;5037342;28;20459;-68
2022/06/13 08:38:11;;;;;;;8.38;2.08;;;;;;;16.96;35.44;101153.59;5037198;28;20073;-67
2022/06/13 08:40:56;;;;;;;4.90;1.80;;;;;;;17.30;35.37;101152.03;5037172;28;20075;-67
2022/06/13 08:43:38;;;;;;;9.52;2.38;;;;;;;17.46;34.61;101162.66;5036363;28;20103;-67
2022/06/13 08:46:28;;;;;;;13.38;2.00;;;;;;;17.90;33.57;101158.84;5037134;28;20405;-68
2022/06/13 08:49:20;;;;;;;7.35;2.20;;;;;;;17.61;33.63;101159.84;5037267;28;20563;-67
2022/06/13 08:52:21;;;;;;;14.32;3.10;;;;;;;17.20;34.41;101167.78;5037140;28;20072;-67
2022/06/13 08:55:14;;;;;;;11.23;2.30;;;;;;;17.14;34.80;101172.94;5033179;28;20561;-67
2022/06/13 08:57:49;;;;;;;9.40;2.20;;;;;;;16.99;34.72;101169.47;5037128;28;20049;-67
2022/06/13 09:00:20;;;;;;;12.93;2.45;;;;;;;16.72;35.18;101167.47;5036792;28;20141;-68
2022/06/13 09:02:52;;;;;;;11.75;3.13;;;;;;;16.43;35.80;101169.16;5037345;28;20084;-68
2022/06/13 09:05:47;;;;;;;12.73;2.45;;;;;;;16.47;36.16;101167.78;5037010;28;20540;-68
2022/06/13 09:08:18;;;;;;;12.80;2.38;;;;;;;16.58;36.30;101153.78;5035614;28;20057;-68
2022/06/13 09:10:59;;;;;;;15.15;2.70;;;;;;;16.80;35.68;101175.47;5037261;28;20545;-68
2022/06/13 09:13:57;;;;;;;8.18;2.15;;;;;;;17.00;35.40;101164.88;5036801;28;20210;-69
2022/06/13 09:16:29;;;;;;;13.52;3.00;;;;;;;17.05;35.45;101167.84;5037104;28;20075;-69
2022/06/13 09:19:18;;;;;;;15.80;3.15;;;;;;;16.82;36.49;101168.03;5036484;28;20049;-68
2022/06/13 09:21:44;;;;;;;13.23;2.97;;;;;;;16.56;37.21;101166.66;5037459;28;20135;-69
2022/06/13 09:24:35;;;;;;;10.65;2.53;;;;;;;16.17;36.49;101166.94;5036881;28;20471;-68
2022/06/13 09:27:11;;;;;;;10.63;2.45;;;;;;;16.26;36.84;101165.78;5036428;28;20088;-68
2022/06/13 09:29:37;;;;;;;14.40;2.38;;;;;;;16.43;36.32;101175.41;5035957;28;20128;-68
2022/06/13 09:32:17;;;;;;;15.98;2.85;;;;;;;16.60;36.20;101165.22;5036542;28;20545;-68
2022/06/13 09:34:51;;;;;;;12.63;3.33;;;;;;;16.73;36.00;101166.44;5036735;28;20085;-70
2022/06/13 09:37:31;;;;;;;12.43;3.03;;;;;;;16.85;35.59;101171.19;5036093;28;20256;-68
2022/06/13 09:39:59;;;;;;;9.02;2.38;;;;;;;16.96;34.20;101159.00;5035615;28;20099;-68
2022/06/13 09:42:40;;;;;;;12.32;2.55;;;;;;;17.21;33.72;101164.06;5036684;28;20049;-67
2022/06/13 09:45:21;;;;;;;11.13;2.53;;;;;;;17.68;33.39;101166.16;5016824;28;20056;-69
2022/06/13 09:48:09;;;;;;;9.98;2.72;;;;;;;18.10;32.71;101161.69;5017374;28;20434;-70
2022/06/13 09:50:45;;;;;;;8.32;2.33;;;;;;;18.78;31.82;101157.22;5016623;28;20153;-69
2022/06/13 09:53:37;;;;;;;13.95;2.55;;;;;;;18.67;32.03;101154.25;5016850;28;20089;-70
2022/06/13 09:56:36;;;;;;;10.55;2.30;;;;;;;18.98;31.81;101149.16;5017072;28;20060;-70
2022/06/13 09:59:23;;;;;;;12.50;3.03;;;;;;;19.29;31.45;101146.91;5010815;28;20140;-69
2022/06/13 10:02:04;;;;;;;11.90;2.92;;;;;;;19.67;30.70;101155.31;5016676;28;20111;-69
2022/06/13 10:04:39;;;;;;;10.18;2.60;;;;;;;19.38;31.46;101146.50;5016263;28;20495;-71
2022/06/13 10:07:42;;;;;;;10.23;2.05;;;;;;;19.41;31.47;101143.34;5015815;28;20120;-69
2022/06/13 10:10:26;;;;;;;12.45;2.60;;;;;;;20.16;29.20;101148.56;5012466;28;20085;-69
2022/06/13 10:12:59;;;;;;;13.43;2.35;;;;;;;19.78;30.56;101134.81;5016670;28;20089;-70
2022/06/13 10:15:45;;;;;;;12.73;2.50;;;;;;;19.81;30.92;101135.22;4998664;28;20435;-71
2022/06/13 10:18:28;;;;;;;10.45;2.10;;;;;;;19.91;30.56;101145.69;5016164;28;20084;-68
2022/06/13 10:21:11;;;;;;;7.22;2.03;;;;;;;20.19;28.38;101135.34;5015435;28;20132;-68
2022/06/13 10:24:02;;;;;;;10.68;2.10;;;;;;;20.34;29.24;101129.63;5016550;28;20088;-69
2022/06/13 10:26:40;;;;;;;13.82;2.75;;;;;;;20.44;28.42;101121.88;5015505;28;20173;-67
2022/06/13 10:29:36;;;;;;;9.07;2.28;;;;;;;19.79;28.87;101140.03;5015609;28;20152;-68
2022/06/13 10:32:11;;;;;;;9.18;2.28;;;;;;;20.33;28.83;101135.31;5016006;28;20070;-68
2022/06/13 10:34:58;;;;;;;8.68;2.00;;;;;;;20.29;28.46;101134.06;5015197;28;20050;-68
2022/06/13 10:37:40;;;;;;;8.48;2.47;;;;;;;19.87;29.41;101120.75;5015224;28;20050;-68
2022/06/13 10:40:11;;;;;;;9.25;2.28;;;;;;;19.31;30.57;101131.22;5015700;28;20076;-69
2022/06/13 10:42:38;;;;;;;10.18;2.42;;;;;;;18.78;31.55;101118.34;5015737;28;20060;-69
2022/06/13 10:45:11;;;;;;;7.18;2.42;;;;;;;18.22;31.46;101119.38;5017115;28;20061;-68
2022/06/13 10:47:51;;;;;;;12.07;2.60;;;;;;;18.33;31.90;101117.97;5035802;28;20409;-70
2022/06/13 10:50:44;;;;;;;8.07;2.33;;;;;;;18.18;32.61;101119.97;5035932;28;20111;-69
2022/06/13 10:53:38;;;;;;;7.43;2.00;;;;;;;18.06;32.48;101120.53;5035619;28;20068;-69
2022/06/13 10:56:10;;;;;;;7.05;2.03;;;;;;;18.22;32.08;101126.69;4998829;28;20080;-68
2022/06/13 10:58:46;;;;;;;;;;;;;;;18.39;31.58;101111.72;5035361;28;20100;-68
2022/06/13 11:01:24;;;;;;;10.75;1.98;;;;;;;18.81;30.89;101117.94;5035616;28;20027;-69
2022/06/13 11:03:59;;;;;;;8.90;1.92;;;;;;;18.82;30.53;101111.44;5035668;28;20136;-68
2022/06/13 11:06:31;;;;;;;8.45;2.05;;;;;;;18.67;30.60;101110.78;5034572;28;20094;-68
2022/06/13 11:09:00;;;;;;;8.65;2.30;;;;;;;18.59;30.93;101102.81;5034089;28;20056;-69
2022/06/13 11:11:34;;;;;;;6.13;1.95;;;;;;;18.15;32.12;101104.09;5034773;28;20073;-71
2022/06/13 11:14:01;;;;;;;5.95;2.00;;;;;;;18.11;31.73;101113.66;5034893;28;20065;-68
2022/06/13 11:22:39;;;;;;;9.60;2.35;;;;;;;18.31;31.05;101104.59;5034617;28;19921;-68
2022/06/13 11:25:11;;;;;;;11.23;2.53;;;;;;;17.98;30.38;101112.53;5034135;28;20049;-69
2022/06/13 11:27:39;;;;;;;8.32;1.73;;;;;;;18.27;30.16;101113.31;5034459;28;20132;-68
2022/06/13 11:30:20;;;;;;;5.50;1.67;;;;;;;18.82;29.55;101119.59;5034346;28;20050;-70
2022/06/13 11:32:56;;;;;;;5.43;1.98;;;;;;;18.55;29.57;101115.97;5034846;28;20466;-70
2022/06/13 11:35:53;;;;;;;11.10;1.80;;;;;;;18.27;29.70;101107.91;5034580;28;20049;-68
2022/06/13 11:38:24;;;;;;;8.43;2.10;;;;;;;18.29;29.44;101103.09;5027600;28;20088;-68
2022/06/13 11:41:06;;;;;;;5.65;1.60;;;;;;;17.94;30.85;101105.81;5034512;28;20139;-69
2022/06/13 11:44:10;;;;;;;7.25;1.80;;;;;;;17.87;31.54;101107.66;5034323;28;20476;-69
2022/06/13 11:46:42;;;;;;;8.18;2.03;;;;;;;17.87;31.17;101112.25;5035146;28;20053;-69
2022/06/13 11:49:15;;;;;;;6.88;1.80;;;;;;;17.70;31.75;101109.84;5034843;28;20092;-70
2022/06/13 11:51:51;;;;;;;10.23;2.30;;;;;;;17.56;32.01;101111.59;5034269;28;20461;-69
2022/06/13 11:54:27;;;;;;;6.30;1.80;;;;;;;17.88;31.50;101098.47;5034581;28;20073;-68
2022/06/13 11:57:17;;;;;;;8.73;2.35;;;;;;;17.85;32.16;101113.25;5035289;28;20095;-68
2022/06/13 12:00:18;;;;;;;8.90;2.10;;;;;;;17.79;32.13;101113.25;5034896;28;20470;-68
2022/06/13 12:02:47;;;;;;;11.20;2.03;;;;;;;17.76;32.07;101114.47;5035529;28;20049;-68
2022/06/13 12:05:19;;;;;;;7.78;2.10;;;;;;;17.62;32.13;101111.88;5038203;28;20084;-70
2022/06/13 12:07:53;;;;;;;;;;;;;;;17.69;32.43;101121.72;5038901;28;20045;-69
2022/06/13 12:10:25;;;;;;;11.02;2.40;;;;;;;17.42;32.77;101145.09;5038471;28;19987;-68
2022/06/13 12:12:52;;;;;;;10.93;2.30;;;;;;;17.20;33.72;101141.53;5038956;28;20148;-68
2022/06/13 12:15:20;;;;;;;7.68;2.03;;;;;;;17.13;34.67;101157.72;5037986;28;20140;-68
2022/06/13 12:17:58;;;;;;;9.15;2.13;;;;;;;17.06;34.84;101139.69;5038025;28;20042;-68
2022/06/13 12:20:52;;;;;;;12.45;2.30;;;;;;;17.11;34.73;101142.69;5038016;28;20077;-68